Latest Weather Observations for Wynyard

IDT60801

Issued at 7:02 am EDT Thursday 19 January 2017 (issued every 30 minutes, with the page automatically refreshed every 10 minutes)

About weather observations | Map of weather stations | Latest weather observations for TAS | Other Formats
Station Details ID: 091107 Name: WYNYARD AIRPORT Lat: -41.00 Lon: 145.73 Height: 12.0 m
Data from the previous 72 hours. | See also: Recent months at Wynyard
Date/Time
EDT
Temp
°C
App
Temp
°C
Dew
Point
°C
Rel
Hum
%
Delta-T
°C
Wind Press
QNH
hPa
Press
MSL
hPa
Rain since
9am
mm
Dir  Spd
km/h
Gust
km/h
Spd
kts
Gust
kts
19/06:30am 8.0 5.2 5.3 83 1.2 W 9 11 5 6 1015.8 1015.8 0.0
19/06:00am 7.6 4.3 4.7 82 1.3 W 11 13 6 7 1015.8 1015.8 0.0
19/05:30am 6.8 3.9 4.6 86 1.0 WSW 9 11 5 6 1015.7 1015.7 0.0
19/05:00am 6.2 3.2 4.2 87 0.9 W 9 11 5 6 1015.4 1015.4 0.0
19/04:30am 7.0 4.1 4.7 85 1.0 W 9 11 5 6 1015.4 1015.4 0.0
19/04:00am 7.3 4.4 4.4 82 1.3 SW 9 13 5 7 1015.5 1015.5 0.0
19/03:30am 6.5 4.0 4.8 89 0.7 SW 7 11 4 6 1015.5 1015.5 0.0
19/03:00am 6.8 4.2 4.1 83 1.2 SW 7 11 4 6 1015.8 1015.8 0.0
19/02:30am 9.0 7.8 4.6 74 1.9 CALM 0 0 0 0 1015.8 1015.8 0.0
19/02:00am 10.3 7.8 4.7 68 2.5 WNW 7 11 4 6 1015.9 1015.9 0.0
19/01:30am 10.6 7.7 4.5 66 2.7 WSW 9 13 5 7 1015.9 1015.9 0.0
19/01:00am 10.8 7.9 4.5 65 2.8 SW 9 15 5 8 1016.0 1016.0 0.0
19/12:30am 11.1 7.8 4.6 64 2.9 SW 11 17 6 9 1016.0 1016.0 0.0
19/12:00am 11.7 7.7 4.7 62 3.2 SSW 15 24 8 13 1015.9 1015.9 0.0
 
Date/Time
EDT
Temp
°C
App
Temp
°C
Dew
Point
°C
Rel
Hum
%
Delta-T
°C
Wind Press
QNH
hPa
Press
MSL
hPa
Rain since
9am
mm
Dir  Spd
km/h
Gust
km/h
Spd
kts
Gust
kts
18/11:30pm 11.5 8.6 4.5 62 3.2 WSW 9 15 5 8 1016.1 1016.1 0.0
18/11:00pm 11.8 8.1 4.5 61 3.3 SW 13 22 7 12 1015.9 1015.9 0.0
18/10:30pm 12.7 7.9 4.7 58 3.7 SSW 19 35 10 19 1015.8 1015.8 0.0
18/10:00pm 13.0 7.2 4.4 56 3.9 SSW 24 37 13 20 1015.7 1015.7 0.0
18/09:49pm 13.4 6.8 4.3 54 4.2 SSW 28 46 15 25 1015.5 1015.5 0.0
18/09:30pm 13.5 7.2 3.8 52 4.4 SSW 26 39 14 21 1015.6 1015.6 0.0
18/09:00pm 13.9 7.2 3.9 51 4.5 SW 28 43 15 23 1015.6 1015.6 0.0
18/08:30pm 14.9 10.0 4.0 48 5.0 SW 19 28 10 15 1015.8 1015.8 0.0
18/08:00pm 16.1 11.5 3.9 44 5.6 SSW 17 26 9 14 1015.3 1015.3 0.0
18/07:30pm 17.0 11.8 3.7 41 6.2 SSW 20 28 11 15 1014.8 1014.8 0.0
18/07:00pm 17.4 11.8 3.3 39 6.5 S 22 35 12 19 1014.5 1014.5 0.0
18/06:30pm 18.0 12.3 2.7 36 7.0 S 22 32 12 17 1014.2 1014.2 0.0
18/06:00pm 18.5 11.8 3.6 37 7.0 SW 28 37 15 20 1013.7 1013.7 0.0
18/05:30pm 18.6 12.5 2.9 35 7.3 SSW 24 39 13 21 1013.4 1013.4 0.0
18/05:19pm 18.6 11.5 1.6 32 7.7 S 28 46 15 25 1013.4 1013.4 0.0
18/05:00pm 18.7 11.9 2.9 35 7.3 S 28 41 15 22 1013.2 1013.2 0.0
18/04:30pm 19.4 13.2 2.3 32 7.9 SSW 24 37 13 20 1013.1 1013.1 0.0
18/04:00pm 19.3 12.6 3.9 36 7.3 SW 28 44 15 24 1012.8 1012.8 0.0
18/03:30pm 19.4 13.1 4.0 36 7.3 SSW 26 43 14 23 1012.5 1012.5 0.0
18/03:00pm 19.5 12.9 4.0 36 7.4 SSW 28 41 15 22 1012.5 1012.5 0.0
18/02:30pm 20.5 15.2 4.9 36 7.6 SSW 22 39 12 21 1012.1 1012.1 0.0
18/02:00pm 19.3 12.6 3.5 35 7.4 SSW 28 43 15 23 1011.9 1011.9 0.0
18/01:30pm 19.6 13.4 4.1 36 7.4 SSW 26 35 14 19 1011.9 1011.9 0.0
18/01:10pm 18.9 10.6 2.3 33 7.6 SW 35 57 19 31 1011.6 1011.6 0.0
18/01:00pm 19.3 12.0 2.6 33 7.7 SSW 30 46 16 25 1011.5 1011.5 0.0
18/12:30pm 18.4 10.7 3.5 37 7.0 SW 33 50 18 27 1011.3 1011.3 0.0
18/12:00pm 18.0 9.6 3.5 38 6.8 SW 37 56 20 30 1011.2 1011.2 0.0
18/11:43am 17.9 11.1 3.0 37 6.9 SW 28 52 15 28 1010.8 1010.8 0.0
18/11:30am 18.2 11.1 5.4 43 6.2 SW 32 46 17 25 1010.6 1010.6 0.0
18/11:00am 17.3 9.6 5.3 45 5.8 SSW 35 54 19 29 1010.2 1010.2 0.0
18/10:49am 17.5 11.0 6.7 49 5.4 SW 30 52 16 28 1010.3 1010.3 0.0
18/10:30am 16.5 9.5 6.1 50 5.1 SW 32 46 17 25 1010.1 1010.1 0.0
18/10:05am 16.3 10.1 6.2 51 4.9 SW 28 46 15 25 1009.7 1009.7 0.0
18/10:00am 16.7 11.5 7.1 53 4.8 SW 24 37 13 20 1009.6 1009.6 0.0
18/09:31am 15.7 8.8 6.4 54 4.5 SW 32 50 17 27 1009.4 1009.4 0.0
18/09:30am 15.8 8.9 7.1 56 4.3 SW 33 50 18 27 1009.4 1009.4 0.0
18/09:21am 15.3 9.2 6.6 56 4.2 WSW 28 48 15 26 1009.2 1009.2 0.0
18/09:00am 15.5 9.6 7.3 58 4.1 WSW 28 41 15 22 1008.9 1008.9 0.8
18/08:30am 14.7 10.0 7.7 63 3.5 WSW 22 33 12 18 1008.8 1008.8 0.8
18/08:00am 14.2 9.2 8.2 67 3.0 WSW 24 35 13 19 1008.6 1008.6 0.8
18/07:30am 13.6 8.1 7.4 66 3.0 WSW 26 39 14 21 1008.1 1008.1 0.8
18/07:00am 13.0 8.6 7.5 69 2.7 WSW 20 35 11 19 1007.6 1007.6 0.8
18/06:30am 12.7 6.8 7.4 70 2.6 WSW 28 35 15 19 1006.8 1006.8 0.8
18/06:00am 12.1 8.1 8.2 77 1.9 WSW 19 28 10 15 1006.2 1006.2 0.8
18/05:30am 12.2 8.1 8.7 79 1.7 W 20 24 11 13 1005.9 1005.9 0.8
18/05:00am 11.9 8.0 8.7 81 1.6 W 19 22 10 12 1005.6 1005.6 0.8
18/04:30am 12.0 7.9 8.7 80 1.6 W 20 24 11 13 1005.8 1005.8 0.8
18/04:00am 11.9 8.4 8.7 81 1.6 W 17 20 9 11 1005.9 1005.9 0.8
18/03:30am 12.5 8.6 8.6 77 1.9 W 19 28 10 15 1005.6 1005.6 0.8
18/03:00am 13.1 8.6 8.6 74 2.3 W 22 30 12 16 1005.6 1005.6 0.8
18/02:30am 13.9 8.3 8.7 71 2.6 WSW 28 39 15 21 1005.6 1005.6 0.8
18/02:00am 14.4 9.8 9.8 74 2.4 WSW 24 37 13 20 1005.3 1005.3 0.8
18/01:30am 15.0 11.0 11.8 81 1.7 W 24 32 13 17 1005.3 1005.3 0.8
18/01:00am 15.2 12.2 12.5 84 1.5 W 20 32 11 17 1005.3 1005.3 0.8
18/12:30am 15.1 12.1 12.4 84 1.5 W 20 30 11 16 1005.5 1005.5 0.8
18/12:00am 15.3 12.6 13.0 86 1.3 W 19 26 10 14 1005.7 1005.7 0.8
 
Date/Time
EDT
Temp
°C
App
Temp
°C
Dew
Point
°C
Rel
Hum
%
Delta-T
°C
Wind Press
QNH
hPa
Press
MSL
hPa
Rain since
9am
mm
Dir  Spd
km/h
Gust
km/h
Spd
kts
Gust
kts
17/11:30pm 15.6 12.9 13.4 87 1.2 W 20 26 11 14 1005.8 1005.8 0.8
17/11:00pm 15.6 12.9 13.6 88 1.1 W 20 28 11 15 1006.1 1006.1 0.8
17/10:30pm 15.5 14.3 14.0 91 0.8 W 13 15 7 8 1005.8 1005.8 0.8
17/10:00pm 16.0 14.9 14.4 90 0.9 WNW 13 17 7 9 1005.9 1005.9 0.6
17/09:30pm 16.3 14.5 14.5 89 1.0 WNW 17 22 9 12 1005.8 1005.8 0.4
17/09:00pm 16.7 15.2 14.3 86 1.4 NW 15 20 8 11 1005.1 1005.1 0.4
17/08:30pm 17.3 15.0 14.2 82 1.8 WNW 19 28 10 15 1005.4 1005.4 0.0
17/08:00pm 18.1 16.1 13.8 76 2.5 WNW 17 22 9 12 1004.9 1004.9 0.0
17/07:30pm 19.3 17.5 13.3 68 3.4 WNW 15 19 8 10 1004.5 1004.5 0.0
17/07:00pm 20.0 17.3 13.0 64 4.0 WNW 19 24 10 13 1004.2 1004.2 0.0
17/06:30pm 20.4 18.2 13.4 64 4.0 NW 17 20 9 11 1003.8 1003.8 0.0
17/06:00pm 20.7 18.5 13.4 63 4.2 NW 17 20 9 11 1003.6 1003.6 0.0
17/05:30pm 21.0 18.6 13.9 64 4.1 NW 19 24 10 13 1004.2 1004.2 0.0
17/05:00pm 20.5 17.4 14.4 68 3.6 NW 24 32 13 17 1004.2 1004.2 0.0
17/04:30pm 21.1 18.3 14.3 65 4.0 NW 22 30 12 16 1004.1 1004.1 0.0
17/04:00pm 20.4 16.3 13.8 66 3.8 NW 28 41 15 22 1004.1 1004.1 0.0
17/03:30pm 21.0 16.0 13.9 64 4.1 NNW 33 44 18 24 1004.1 1004.1 0.0
17/03:00pm 21.2 17.1 14.8 67 3.8 NW 30 35 16 19 1004.4 1004.4 0.0
17/02:30pm 21.5 17.9 15.3 68 3.7 NW 28 39 15 21 1004.7 1004.7 0.0
17/02:00pm 21.4 18.7 15.7 70 3.4 NW 24 32 13 17 1004.8 1004.8 0.0
17/01:30pm 20.3 16.6 14.9 71 3.2 NW 28 37 15 20 1005.3 1005.3 0.0
17/01:00pm 20.0 17.1 15.2 74 2.8 NNW 24 30 13 16 1005.5 1005.5 0.0
17/12:30pm 20.0 18.7 14.8 72 3.0 N 15 24 8 13 1006.0 1006.0 0.0
17/12:00pm 18.1 16.1 14.0 77 2.4 NE 17 22 9 12 1006.2 1006.2 0.0
17/11:30am 18.1 15.9 13.4 74 2.7 NE 17 20 9 11 1006.1 1006.1 0.0
17/11:00am 18.9 16.8 13.5 71 3.1 NE 17 20 9 11 1006.7 1006.7 0.0
17/10:30am 19.3 17.0 13.0 67 3.6 NNE 17 20 9 11 1007.2 1007.2 0.0
17/10:00am 19.2 19.0 13.6 70 3.2 N 7 11 4 6 1006.8 1006.8 0.0
17/09:30am 17.9 18.4 12.8 72 2.9 SW 2 9 1 5 1007.2 1007.2 0.0
17/09:00am 15.7 15.3 12.5 81 1.8 W 6 7 3 4 1007.4 1007.4 0.0
17/08:30am 13.8 13.2 11.8 88 1.1 W 6 9 3 5 1007.4 1007.4 0.0
17/08:00am 13.1 12.2 11.5 90 0.9 WSW 7 9 4 5 1006.8 1006.8 0.0
17/07:30am 12.7 11.4 11.3 91 0.7 W 9 11 5 6 1007.8 1007.8 0.0
17/07:00am 12.0 11.1 10.7 92 0.7 W 6 9 3 5 1007.6 1007.6 0.0
17/06:30am 11.6 10.5 10.5 93 0.6 WNW 7 11 4 6 1007.2 1007.2 0.0
17/06:00am 11.5 10.0 10.4 93 0.6 WNW 9 11 5 6 1007.1 1007.1 0.0
17/05:30am 11.3 9.7 10.2 93 0.6 WNW 9 11 5 6 1007.3 1007.3 0.0
17/05:00am 11.1 9.5 10.2 94 0.5 WNW 9 11 5 6 1007.1 1007.1 0.0
17/04:30am 11.0 10.0 10.2 95 0.4 W 6 9 3 5 1007.1 1007.1 0.0
17/04:00am 10.0 9.5 9.2 95 0.4 SW 2 9 1 5 1007.2 1007.2 0.0
17/03:51am 10.3 9.8 9.5 95 0.4 SW 2 6 1 3 1007.1 1007.1 0.0
17/03:38am 10.2 8.8 9.4 95 0.4 SW 7 11 4 6 1007.3 1007.3 0.0
17/03:30am 10.0 8.5 9.2 95 0.4 WSW 7 11 4 6 1007.4 1007.4 0.0
17/03:00am 10.1 8.8 9.2 94 0.4 WSW 6 9 3 5 1007.5 1007.5 0.0
17/02:30am 11.0 10.0 10.2 95 0.4 SSW 6 9 3 5 1007.8 1007.8 0.0
17/02:00am 11.4 10.2 10.3 93 0.6 W 7 9 4 5 1008.0 1008.0 0.0
17/01:30am 11.7 10.6 10.6 93 0.6 WSW 7 9 4 5 1008.4 1008.4 0.0
17/01:00am 13.3 13.9 12.0 92 0.7 CALM 0 0 0 0 1008.3 1008.3 0.0
17/12:30am 13.6 13.1 12.2 91 0.8 W 6 7 3 4 1008.4 1008.4 0.0
17/12:00am 14.0 12.9 11.9 87 1.1 W 9 11 5 6 1008.7 1008.7 0.0
 
Date/Time
EDT
Temp
°C
App
Temp
°C
Dew
Point
°C
Rel
Hum
%
Delta-T
°C
Wind Press
QNH
hPa
Press
MSL
hPa
Rain since
9am
mm
Dir  Spd
km/h
Gust
km/h
Spd
kts
Gust
kts
16/11:30pm 15.0 14.3 12.1 83 1.6 WSW 7 9 4 5 1008.9 1008.9 0.0
16/11:00pm 15.4 14.9 12.5 83 1.6 S 7 11 4 6 1009.5 1009.5 0.0
16/10:30pm 16.3 13.4 12.3 77 2.2 WNW 19 22 10 12 1009.6 1009.6 0.0
16/10:00pm 16.5 13.7 12.5 77 2.2 WNW 19 22 10 12 1010.1 1010.1 0.0
16/09:30pm 16.7 13.9 12.5 76 2.3 WNW 19 26 10 14 1009.7 1009.7 0.0
16/09:00pm 16.8 13.8 12.5 76 2.4 NW 20 28 11 15 1009.4 1009.4 0.0
16/08:30pm 16.7 12.6 12.8 78 2.2 NW 26 37 14 20 1009.2 1009.2 0.0
16/08:00pm 16.8 11.9 12.5 76 2.4 NW 30 41 16 22 1009.1 1009.1 0.0
16/07:30pm 17.3 12.7 12.2 72 2.8 NW 28 35 15 19 1009.4 1009.4 0.0
16/07:00pm 17.9 13.3 12.4 70 3.1 NW 28 39 15 21 1009.3 1009.3 0.0
16/06:30pm 18.2 12.7 12.0 67 3.4 NW 32 41 17 22 1009.4 1009.4 0.0
16/06:00pm 18.3 12.7 12.1 67 3.4 NW 33 44 18 24 1009.5 1009.5 0.0
16/05:30pm 18.5 12.4 11.8 65 3.7 NNW 35 46 19 25 1009.6 1009.6 0.0
16/05:00pm 19.2 13.5 11.7 62 4.1 NNW 33 44 18 24 1009.9 1009.9 0.0
16/04:30pm 19.2 13.1 11.7 62 4.1 NW 35 50 19 27 1010.3 1010.3 0.0
16/04:00pm 19.9 14.2 11.9 60 4.4 NNW 33 46 18 25 1010.4 1010.4 0.0
16/03:30pm 19.1 12.4 10.9 59 4.5 NNW 37 54 20 29 1010.7 1010.7 0.0
16/03:17pm 19.2 13.2 10.7 58 4.6 NW 33 54 18 29 1010.8 1010.8 0.0
16/03:00pm 20.0 14.9 11.8 59 4.6 NW 30 41 16 22 1010.9 1010.9 0.0
16/02:30pm 21.0 15.9 11.9 56 5.1 NW 30 37 16 20 1011.0 1011.0 0.0
16/02:00pm 20.2 15.2 10.9 55 5.1 WNW 28 39 15 21 1011.3 1011.3 0.0
16/01:30pm 20.0 15.5 11.5 58 4.7 WNW 26 35 14 19 1011.9 1011.9 0.0
16/01:00pm 20.0 15.5 11.5 58 4.7 WNW 26 37 14 20 1012.2 1012.2 0.0
16/12:30pm 19.0 14.7 10.6 58 4.5 WNW 24 35 13 19 1012.7 1012.7 0.0
16/12:00pm 18.8 13.9 11.4 62 4.0 WNW 28 35 15 19 1013.1 1013.1 0.0
16/11:30am 18.6 13.7 11.2 62 4.0 WNW 28 37 15 20 1013.4 1013.4 0.0
16/11:00am 17.0 12.0 9.7 62 3.8 W 26 35 14 19 1013.7 1013.7 0.0
16/10:30am 16.8 12.1 10.6 67 3.3 WNW 26 35 14 19 1014.0 1014.0 0.0
16/10:00am 16.4 11.5 10.0 66 3.4 WNW 26 33 14 18 1014.3 1014.3 0.0
16/09:30am 16.1 11.1 9.5 65 3.4 W 26 33 14 18 1014.4 1014.4 0.0
16/09:00am 15.3 11.7 9.9 70 2.8 W 19 26 10 14 1014.4 1014.4 0.0
16/08:30am 14.8 10.9 9.6 71 2.7 WNW 20 28 11 15 1014.3 1014.3 0.0
16/08:00am 13.9 10.6 9.7 76 2.2 WNW 17 20 9 11 1014.3 1014.3 0.0
16/07:30am 13.5 10.2 9.7 78 1.9 WNW 17 20 9 11 1014.0 1014.0 0.0

Other Formats:

Comma delimited format used in spreadsheet applications
http://www.bom.gov.au/fwo/IDT60801/IDT60801.95957.axf

JavaScript Object Notation format (JSON) in row-major order
http://www.bom.gov.au/fwo/IDT60801/IDT60801.95957.json